createdAt,value
2018-03-01T00:01:27.167Z,-8.20
2018-03-01T00:03:56.108Z,-8.10
2018-03-01T00:06:24.278Z,-8.10
2018-03-01T00:08:52.505Z,-8.10
2018-03-01T00:11:20.072Z,-8.10
2018-03-01T00:13:48.469Z,-8.10
2018-03-01T00:16:15.907Z,-8.10
2018-03-01T00:18:44.110Z,-8.10
2018-03-01T00:21:11.534Z,-8.10
2018-03-01T00:23:38.970Z,-8.10
2018-03-01T00:26:06.415Z,-8.10
2018-03-01T00:28:33.892Z,-8.10
2018-03-01T00:31:01.328Z,-8.10
2018-03-01T00:33:29.639Z,-8.10
2018-03-01T00:35:57.868Z,-8.20
2018-03-01T00:38:25.272Z,-8.20
2018-03-01T00:40:52.702Z,-8.10
2018-03-01T00:43:20.155Z,-8.20
2018-03-01T00:45:47.628Z,-8.30
2018-03-01T00:48:15.178Z,-8.30
2018-03-01T00:50:42.622Z,-8.20
2018-03-01T00:53:10.038Z,-8.30
2018-03-01T00:55:37.470Z,-8.30
2018-03-01T00:58:04.928Z,-8.30
2018-03-01T01:00:33.108Z,-8.20
2018-03-01T01:03:01.347Z,-8.30
2018-03-01T01:05:28.802Z,-8.30
2018-03-01T01:07:56.259Z,-8.20
2018-03-01T01:10:23.686Z,-8.20
2018-03-01T01:12:51.107Z,-8.20
2018-03-01T01:15:19.354Z,-8.20
2018-03-01T01:17:47.561Z,-8.20
2018-03-01T01:20:14.997Z,-8.20
2018-03-01T01:22:43.191Z,-8.30
2018-03-01T01:25:10.622Z,-8.30
2018-03-01T01:27:38.054Z,-8.30
2018-03-01T01:30:05.475Z,-8.30
2018-03-01T01:32:32.914Z,-8.20
2018-03-01T01:35:00.370Z,-8.30
2018-03-01T01:37:28.562Z,-8.30
2018-03-01T01:39:56.004Z,-8.30
2018-03-01T01:42:24.220Z,-8.30
2018-03-01T01:44:51.679Z,-8.30
2018-03-01T01:47:20.586Z,-8.20
2018-03-01T01:49:48.038Z,-8.20
2018-03-01T01:52:15.490Z,-8.20
2018-03-01T01:54:43.683Z,-8.20
2018-03-01T01:57:11.895Z,-8.20
2018-03-01T01:59:39.334Z,-8.20
2018-03-01T02:02:07.528Z,-8.20
2018-03-01T02:04:34.986Z,-8.20
2018-03-01T02:07:03.195Z,-8.20
2018-03-01T02:09:30.625Z,-8.20
2018-03-01T02:11:58.839Z,-8.20
2018-03-01T02:14:26.448Z,-8.20
2018-03-01T02:16:53.907Z,-8.20
2018-03-01T02:19:21.324Z,-8.10
2018-03-01T02:21:48.788Z,-8.20
2018-03-01T02:24:17.043Z,-8.20
2018-03-01T02:26:44.491Z,-8.20
2018-03-01T02:29:11.935Z,-8.10
2018-03-01T02:31:40.114Z,-8.20
2018-03-01T02:34:08.305Z,-8.10
2018-03-01T02:36:36.509Z,-8.20
2018-03-01T02:39:03.935Z,-8.20
2018-03-01T02:41:31.343Z,-8.20
2018-03-01T02:43:58.826Z,-8.20
2018-03-01T02:46:26.292Z,-8.10
2018-03-01T02:48:53.722Z,-8.10
2018-03-01T02:51:21.209Z,-8.10
2018-03-01T02:53:48.734Z,-8.10
2018-03-01T02:56:16.233Z,-8.10
2018-03-01T02:58:44.421Z,-8.20
2018-03-01T03:01:12.641Z,-8.20
2018-03-01T03:03:40.065Z,-8.20
2018-03-01T03:06:08.263Z,-8.20
2018-03-01T03:08:36.484Z,-8.20
2018-03-01T03:11:03.918Z,-8.20
2018-03-01T03:13:32.109Z,-8.20
2018-03-01T03:15:59.537Z,-8.20
2018-03-01T03:18:26.976Z,-8.20
2018-03-01T03:20:55.167Z,-8.30
2018-03-01T03:23:22.620Z,-8.30
2018-03-01T03:25:51.745Z,-8.30
2018-03-01T03:28:19.941Z,-8.30
2018-03-01T03:30:48.149Z,-8.20
2018-03-01T03:33:15.656Z,-8.20
2018-03-01T03:35:43.142Z,-8.20
2018-03-01T03:38:10.593Z,-8.20
2018-03-01T03:40:38.922Z,-8.20
2018-03-01T03:43:06.342Z,-8.20
2018-03-01T03:45:33.780Z,-8.20
2018-03-01T03:48:01.234Z,-8.20
2018-03-01T03:50:28.746Z,-8.20
2018-03-01T03:52:56.177Z,-8.20
2018-03-01T03:55:24.405Z,-8.20
2018-03-01T03:57:51.902Z,-8.20
2018-03-01T04:00:19.354Z,-8.20
2018-03-01T04:02:46.818Z,-8.30
2018-03-01T04:05:14.338Z,-8.30
2018-03-01T04:07:42.528Z,-8.20
2018-03-01T04:10:10.048Z,-8.20
2018-03-01T04:12:37.453Z,-8.20
2018-03-01T04:15:04.898Z,-8.30
2018-03-01T04:17:32.380Z,-8.20
2018-03-01T04:19:59.805Z,-8.20
2018-03-01T04:22:28.014Z,-8.30
2018-03-01T04:24:55.430Z,-8.30
2018-03-01T04:27:23.650Z,-8.40
2018-03-01T04:29:52.807Z,-8.30
2018-03-01T04:32:20.234Z,-8.30
2018-03-01T04:34:47.689Z,-8.30
2018-03-01T04:37:15.906Z,-8.40
2018-03-01T04:39:43.321Z,-8.40
2018-03-01T04:42:10.801Z,-8.30
2018-03-01T04:44:38.315Z,-8.30
2018-03-01T04:47:05.815Z,-8.30
2018-03-01T04:49:33.275Z,-8.30
2018-03-01T04:52:00.667Z,-8.30
2018-03-01T04:54:28.112Z,-8.30
2018-03-01T04:56:55.542Z,-8.40
2018-03-01T04:59:22.954Z,-8.40
2018-03-01T05:01:50.377Z,-8.40
2018-03-01T05:04:18.639Z,-8.40
2018-03-01T05:06:46.096Z,-8.40
2018-03-01T05:09:13.552Z,-8.40
2018-03-01T05:11:41.026Z,-8.50
2018-03-01T05:14:08.450Z,-8.40
2018-03-01T05:16:35.892Z,-8.50
2018-03-01T05:19:04.081Z,-8.50
2018-03-01T05:21:31.509Z,-8.50
2018-03-01T05:23:58.945Z,-8.50
2018-03-01T05:26:26.418Z,-8.50
2018-03-01T05:28:53.845Z,-8.60
2018-03-01T05:31:21.263Z,-8.60
2018-03-01T05:33:48.722Z,-8.50
2018-03-01T05:36:16.177Z,-8.40
2018-03-01T05:38:43.633Z,-8.50
2018-03-01T05:41:11.884Z,-8.50
2018-03-01T05:43:39.298Z,-8.60
2018-03-01T05:46:07.494Z,-8.60
2018-03-01T05:48:34.948Z,-8.60
2018-03-01T05:51:03.147Z,-8.60
2018-03-01T05:53:30.598Z,-8.60
2018-03-01T05:55:58.004Z,-8.60
2018-03-01T05:58:25.474Z,-8.60
2018-03-01T06:00:53.816Z,-8.60
2018-03-01T06:03:21.310Z,-8.60
2018-03-01T06:05:48.739Z,-8.60
2018-03-01T06:08:16.222Z,-8.70
2018-03-01T06:10:44.410Z,-8.60
2018-03-01T06:13:11.839Z,-8.70
2018-03-01T06:15:39.343Z,-8.60
2018-03-01T06:18:06.774Z,-8.60
2018-03-01T06:20:34.210Z,-8.60
2018-03-01T06:23:01.727Z,-8.60
2018-03-01T06:25:29.150Z,-8.70
2018-03-01T06:27:56.634Z,-8.70
2018-03-01T06:30:24.514Z,-8.70
2018-03-01T06:32:51.958Z,-8.60
2018-03-01T06:35:20.162Z,-8.60
2018-03-01T06:37:47.594Z,-8.60
2018-03-01T06:40:15.835Z,-8.70
2018-03-01T06:42:43.275Z,-8.80
2018-03-01T06:45:11.447Z,-8.70
2018-03-01T06:47:38.881Z,-8.70
2018-03-01T06:50:06.302Z,-8.70
2018-03-01T06:52:33.734Z,-8.60
2018-03-01T06:55:02.083Z,-8.50
2018-03-01T06:57:29.530Z,-8.50
2018-03-01T06:59:56.954Z,-8.50
2018-03-01T07:02:25.389Z,-8.50
2018-03-01T07:04:52.842Z,-8.50
2018-03-01T07:07:21.047Z,-8.70
2018-03-01T07:09:49.271Z,-8.60
2018-03-01T07:12:16.736Z,-8.60
2018-03-01T07:14:44.210Z,-8.50
2018-03-01T07:17:11.654Z,-8.60
2018-03-01T07:19:39.104Z,-8.60
2018-03-01T07:22:06.557Z,-8.60
2018-03-01T07:24:34.735Z,-8.50
2018-03-01T07:27:02.940Z,-8.40
2018-03-01T07:29:31.131Z,-8.30
2018-03-01T07:31:58.734Z,-8.40
2018-03-01T07:34:26.118Z,-8.50
2018-03-01T07:36:53.561Z,-8.40
2018-03-01T07:39:21.048Z,-8.40
2018-03-01T07:41:48.480Z,-8.30
2018-03-01T07:44:16.067Z,-8.30
2018-03-01T07:46:43.486Z,-8.30
2018-03-01T07:49:11.687Z,-8.20
2018-03-01T07:51:39.872Z,-8.30
2018-03-01T07:54:08.079Z,-8.20
2018-03-01T07:56:35.495Z,-8.30
2018-03-01T07:59:02.919Z,-8.20
2018-03-01T08:01:30.414Z,-8.20
2018-03-01T08:03:57.846Z,-8.20
2018-03-01T08:06:25.398Z,-8.30
2018-03-01T08:08:52.917Z,-8.20
2018-03-01T08:11:21.225Z,-8.20
2018-03-01T08:13:48.750Z,-8.10
2018-03-01T08:16:17.325Z,-8.00
2018-03-01T08:18:45.103Z,-8.00
2018-03-01T08:21:13.326Z,-7.90
2018-03-01T08:23:40.836Z,-7.90
2018-03-01T08:26:09.253Z,-7.90
2018-03-01T08:28:37.435Z,-7.80
2018-03-01T08:31:05.660Z,-7.90
2018-03-01T08:33:33.077Z,-7.90
2018-03-01T08:36:01.529Z,-7.90
2018-03-01T08:38:30.934Z,-7.80
2018-03-01T08:40:58.381Z,-7.70
2018-03-01T08:43:26.664Z,-7.70
2018-03-01T08:45:55.872Z,-7.60
2018-03-01T08:48:24.060Z,-7.50
2018-03-01T08:50:52.250Z,-7.50
2018-03-01T08:53:20.488Z,-7.40
2018-03-01T08:55:47.986Z,-7.40
2018-03-01T08:58:16.260Z,-7.40
2018-03-01T09:00:43.688Z,-7.40
2018-03-01T09:03:11.131Z,-7.50
2018-03-01T09:05:39.406Z,-7.30
2018-03-01T09:08:06.811Z,-7.40
2018-03-01T09:10:35.320Z,-7.30
2018-03-01T09:13:02.734Z,-7.30
2018-03-01T09:15:31.049Z,-7.20
2018-03-01T09:17:58.452Z,-7.30
2018-03-01T09:20:27.352Z,-7.00
2018-03-01T09:22:54.819Z,-7.00
2018-03-01T09:25:22.295Z,-6.80
2018-03-01T09:27:49.773Z,-6.70
2018-03-01T09:30:17.367Z,-6.60
2018-03-01T09:32:44.880Z,-6.60
2018-03-01T09:35:12.348Z,-6.50
2018-03-01T09:37:39.792Z,-6.50
2018-03-01T09:40:07.995Z,-6.70
2018-03-01T09:42:35.403Z,-6.80
2018-03-01T09:45:02.841Z,-6.70
2018-03-01T09:47:30.280Z,-6.70
2018-03-01T09:49:58.472Z,-6.50
2018-03-01T09:52:27.606Z,-6.40
2018-03-01T09:54:55.035Z,-6.50
2018-03-01T09:57:23.400Z,-6.40
2018-03-01T09:59:50.929Z,-6.30
2018-03-01T10:02:19.112Z,-6.20
2018-03-01T10:04:46.614Z,-6.20
2018-03-01T10:07:14.109Z,-6.00
2018-03-01T10:09:41.522Z,-6.00
2018-03-01T10:12:09.004Z,-6.00
2018-03-01T10:14:36.434Z,-6.00
2018-03-01T10:17:04.623Z,-5.90
2018-03-01T10:19:32.132Z,-5.90
2018-03-01T10:21:59.590Z,-5.80
2018-03-01T10:24:28.074Z,-5.70
2018-03-01T10:26:57.209Z,-5.70
2018-03-01T10:29:24.656Z,-5.70
2018-03-01T10:31:52.088Z,-5.70
2018-03-01T10:34:19.550Z,-5.60
2018-03-01T10:36:47.007Z,-5.50
2018-03-01T10:39:14.526Z,-5.70
2018-03-01T10:41:41.996Z,-5.70
2018-03-01T10:44:09.572Z,-5.50
2018-03-01T10:46:37.751Z,-5.50
2018-03-01T10:49:05.214Z,-5.50
2018-03-01T10:51:32.694Z,-5.50
2018-03-01T10:54:00.126Z,-5.40
2018-03-01T10:56:27.749Z,-5.40
2018-03-01T10:58:55.170Z,-5.30
2018-03-01T11:01:23.360Z,-5.20
2018-03-01T11:03:50.814Z,-5.20
2018-03-01T11:06:19.071Z,-5.00
2018-03-01T11:08:46.535Z,-5.00
2018-03-01T11:11:14.394Z,-5.00
2018-03-01T11:13:42.622Z,-4.80
2018-03-01T11:16:10.047Z,-4.90
2018-03-01T11:18:37.490Z,-4.90
2018-03-01T11:21:05.794Z,-4.70
2018-03-01T11:23:33.226Z,-4.70
2018-03-01T11:26:00.660Z,-4.50
2018-03-01T11:28:29.237Z,-4.20
2018-03-01T11:30:56.784Z,-4.20
2018-03-01T11:33:24.202Z,-4.10
2018-03-01T11:35:51.673Z,-4.00
2018-03-01T11:38:19.323Z,-3.70
2018-03-01T11:40:47.551Z,-3.30
2018-03-01T11:43:15.767Z,-3.40
2018-03-01T11:45:43.974Z,-3.20
2018-03-01T11:48:11.406Z,-3.20
2018-03-01T11:50:38.861Z,-3.30
2018-03-01T11:53:06.274Z,-3.30
2018-03-01T11:55:33.718Z,-3.10
2018-03-01T11:58:01.154Z,-2.40
2018-03-01T12:00:29.525Z,-1.50
2018-03-01T12:02:56.942Z,-1.50
2018-03-01T12:05:25.872Z,-1.00
2018-03-01T12:07:54.059Z,-1.50
2018-03-01T12:10:22.302Z,-0.50
2018-03-01T12:12:49.811Z,-0.50
2018-03-01T12:15:18.014Z,0.50
2018-03-01T12:17:45.487Z,0.50
2018-03-01T12:20:12.918Z,-0.20
2018-03-01T12:22:40.341Z,0.00
2018-03-01T12:25:07.787Z,1.30
2018-03-01T12:27:35.202Z,1.40
2018-03-01T12:30:02.623Z,1.10
2018-03-01T12:32:30.085Z,1.90
2018-03-01T12:34:57.536Z,1.50
2018-03-01T12:37:25.724Z,1.60
2018-03-01T12:39:53.934Z,2.90
2018-03-01T12:42:21.413Z,2.90
2018-03-01T12:44:48.830Z,2.10
2018-03-01T12:47:16.323Z,2.10
2018-03-01T12:49:44.540Z,2.40
2018-03-01T12:52:11.964Z,2.30
2018-03-01T12:54:40.150Z,1.60
2018-03-01T12:57:07.625Z,1.60
2018-03-01T12:59:35.048Z,1.90
2018-03-01T13:02:02.443Z,2.20
2018-03-01T13:04:29.854Z,2.50
2018-03-01T13:06:57.321Z,2.70
2018-03-01T13:09:25.494Z,2.20
2018-03-01T13:11:52.978Z,2.20
2018-03-01T13:14:21.182Z,1.90
2018-03-01T13:16:48.620Z,1.90
2018-03-01T13:19:16.078Z,1.10
2018-03-01T13:21:44.262Z,2.40
2018-03-01T13:24:11.700Z,2.40
2018-03-01T13:26:39.139Z,2.50
2018-03-01T13:29:06.591Z,1.70
2018-03-01T13:31:34.782Z,0.40
2018-03-01T13:34:07.774Z,0.40
2018-03-01T13:36:35.947Z,2.10
2018-03-01T13:39:04.138Z,2.20
2018-03-01T13:41:32.303Z,1.50
2018-03-01T13:44:01.255Z,0.60
2018-03-01T13:46:41.483Z,0.60
2018-03-01T13:49:08.903Z,0.90
2018-03-01T13:51:36.325Z,0.90
2018-03-01T13:54:04.556Z,1.90
2018-03-01T13:56:32.000Z,1.80
2018-03-01T13:58:59.422Z,1.80
2018-03-01T14:01:26.850Z,1.40
2018-03-01T14:03:54.287Z,1.20
2018-03-01T14:06:24.958Z,2.10
2018-03-01T14:08:53.247Z,2.10
2018-03-01T14:11:20.814Z,2.10
2018-03-01T14:13:48.278Z,1.30
2018-03-01T14:16:15.703Z,0.80
2018-03-01T14:18:48.762Z,1.20
2018-03-01T14:21:21.172Z,0.80
2018-03-01T14:23:59.438Z,1.00
2018-03-01T14:26:29.093Z,0.60
2018-03-01T14:28:58.082Z,0.60
2018-03-01T14:31:26.263Z,0.60
2018-03-01T14:33:53.679Z,0.60
2018-03-01T14:36:21.113Z,0.60
2018-03-01T14:38:48.576Z,1.30
2018-03-01T14:41:16.770Z,1.40
2018-03-01T14:43:44.263Z,1.40
2018-03-01T14:46:11.696Z,1.40
2018-03-01T14:48:39.907Z,1.00
2018-03-01T14:51:07.336Z,1.00
2018-03-01T14:53:35.520Z,0.80
2018-03-01T14:56:03.735Z,1.10
2018-03-01T14:58:32.513Z,1.10
2018-03-01T15:01:01.631Z,1.10
2018-03-01T15:03:29.843Z,1.20
2018-03-01T15:05:57.296Z,1.20
2018-03-01T15:08:25.544Z,1.60
2018-03-01T15:10:53.089Z,1.60
2018-03-01T15:13:20.501Z,0.70
2018-03-01T15:15:48.731Z,-0.20
2018-03-01T15:18:16.201Z,-0.30
2018-03-01T15:20:43.639Z,-0.20
2018-03-01T15:23:11.116Z,-0.20
2018-03-01T15:25:39.309Z,0.10
2018-03-01T15:28:06.830Z,0.10
2018-03-01T15:30:35.110Z,-0.20
2018-03-01T15:33:03.310Z,-0.20
2018-03-01T15:35:30.715Z,-0.20
2018-03-01T15:37:58.137Z,0.00
2018-03-01T15:40:25.639Z,-0.20
2018-03-01T15:42:53.886Z,-0.60
2018-03-01T15:45:21.387Z,-0.60
2018-03-01T15:47:49.632Z,-0.60
2018-03-01T15:50:17.116Z,-0.70
2018-03-01T15:52:44.611Z,-1.00
2018-03-01T15:55:12.822Z,-1.80
2018-03-01T15:57:40.266Z,-1.90
2018-03-01T16:00:08.515Z,-2.80
2018-03-01T16:02:35.891Z,-2.90
2018-03-01T16:05:03.325Z,-3.10
2018-03-01T16:07:30.763Z,-3.30
2018-03-01T16:09:58.979Z,-3.60
2018-03-01T16:12:26.395Z,-3.60
2018-03-01T16:14:53.912Z,-3.70
2018-03-01T16:17:21.371Z,-3.70
2018-03-01T16:19:48.798Z,-3.60
2018-03-01T16:22:16.284Z,-3.70
2018-03-01T16:24:43.727Z,-3.80
2018-03-01T16:27:11.384Z,-3.90
2018-03-01T16:29:38.855Z,-3.90
2018-03-01T16:32:06.994Z,-4.10
2018-03-01T16:34:34.426Z,-4.20
2018-03-01T16:37:01.961Z,-4.10
2018-03-01T16:39:29.386Z,-4.10
2018-03-01T16:41:57.590Z,-4.20
2018-03-01T16:44:25.032Z,-4.20
2018-03-01T16:46:52.548Z,-4.20
2018-03-01T16:49:20.956Z,-4.30
2018-03-01T16:51:48.451Z,-4.30
2018-03-01T16:54:15.897Z,-4.40
2018-03-01T16:56:43.331Z,-4.50
2018-03-01T16:59:10.763Z,-4.50
2018-03-01T17:01:38.215Z,-4.60
2018-03-01T17:04:05.655Z,-4.60
2018-03-01T17:06:33.872Z,-4.50
2018-03-01T17:09:01.335Z,-4.60
2018-03-01T17:11:28.770Z,-4.70
2018-03-01T17:13:56.195Z,-4.70
2018-03-01T17:16:25.122Z,-4.70
2018-03-01T17:18:53.313Z,-4.70
2018-03-01T17:21:20.781Z,-4.70
2018-03-01T17:23:49.014Z,-4.70
2018-03-01T17:26:16.502Z,-4.70
2018-03-01T17:28:43.976Z,-4.70
2018-03-01T17:31:11.438Z,-4.80
2018-03-01T17:33:38.873Z,-4.90
2018-03-01T17:36:06.344Z,-4.90
2018-03-01T17:38:35.234Z,-4.90
2018-03-01T17:41:02.654Z,-5.00
2018-03-01T17:43:30.101Z,-5.00
2018-03-01T17:45:57.512Z,-5.00
2018-03-01T17:48:25.738Z,-4.90
2018-03-01T17:50:53.176Z,-5.00
2018-03-01T17:53:20.695Z,-4.90
2018-03-01T17:55:48.139Z,-5.10
2018-03-01T17:58:15.583Z,-5.00
2018-03-01T18:00:43.016Z,-5.00
2018-03-01T18:03:10.440Z,-5.10
2018-03-01T18:05:37.871Z,-5.10
2018-03-01T18:08:06.048Z,-5.10
2018-03-01T18:10:33.479Z,-5.10
2018-03-01T18:13:00.919Z,-5.10
2018-03-01T18:15:28.400Z,-5.10
2018-03-01T18:17:55.846Z,-5.10
2018-03-01T18:20:23.377Z,-5.10
2018-03-01T18:22:50.860Z,-5.10
2018-03-01T18:25:18.306Z,-5.10
2018-03-01T18:27:45.809Z,-5.20
2018-03-01T18:30:13.264Z,-5.20
2018-03-01T18:32:40.694Z,-5.20
2018-03-01T18:35:08.216Z,-5.20
2018-03-01T18:37:35.612Z,-5.20
2018-03-01T18:40:03.073Z,-5.20
2018-03-01T18:42:31.387Z,-5.30
2018-03-01T18:44:58.836Z,-5.30
2018-03-01T18:47:26.365Z,-5.30
2018-03-01T18:49:53.856Z,-5.30
2018-03-01T18:52:22.077Z,-5.40
2018-03-01T18:54:49.662Z,-5.40
2018-03-01T18:57:17.116Z,-5.40
2018-03-01T18:59:44.598Z,-5.40
2018-03-01T19:02:12.044Z,-5.40
2018-03-01T19:04:39.466Z,-5.40
2018-03-01T19:07:07.681Z,-5.40
2018-03-01T19:09:36.774Z,-5.50
2018-03-01T19:12:05.877Z,-5.40
2018-03-01T19:14:33.298Z,-5.40
2018-03-01T19:17:00.763Z,-5.50
2018-03-01T19:19:28.162Z,-5.50
2018-03-01T19:21:55.684Z,-5.50
2018-03-01T19:24:23.137Z,-5.40
2018-03-01T19:26:51.390Z,-5.50
2018-03-01T19:29:18.848Z,-5.50
2018-03-01T19:31:46.326Z,-5.50
2018-03-01T19:34:14.748Z,-5.50
2018-03-01T19:36:42.253Z,-5.50
2018-03-01T19:39:09.662Z,-5.50
2018-03-01T19:41:37.118Z,-5.50
2018-03-01T19:44:04.565Z,-5.50
2018-03-01T19:46:31.978Z,-5.50
2018-03-01T19:48:59.496Z,-5.50
2018-03-01T19:51:26.909Z,-5.50
2018-03-01T19:53:54.372Z,-5.60
2018-03-01T19:56:21.868Z,-5.60
2018-03-01T19:58:50.130Z,-5.70
2018-03-01T20:01:17.545Z,-5.70
2018-03-01T20:03:44.987Z,-5.70
2018-03-01T20:06:13.167Z,-5.70
2018-03-01T20:08:40.678Z,-5.70
2018-03-01T20:11:08.190Z,-5.70
2018-03-01T20:13:35.597Z,-5.70
2018-03-01T20:16:03.022Z,-5.80
2018-03-01T20:18:30.488Z,-5.80
2018-03-01T20:20:57.957Z,-5.70
2018-03-01T20:23:25.429Z,-5.70
2018-03-01T20:25:52.850Z,-5.80
2018-03-01T20:28:20.302Z,-5.80
2018-03-01T20:30:49.314Z,-5.80
2018-03-01T20:33:17.523Z,-5.80
2018-03-01T20:35:45.743Z,-6.00
2018-03-01T20:38:13.153Z,-6.00
2018-03-01T20:40:41.403Z,-6.00
2018-03-01T20:43:08.805Z,-6.00
2018-03-01T20:45:37.914Z,-6.00
2018-03-01T20:48:06.106Z,-6.00
2018-03-01T20:50:33.685Z,-6.00
2018-03-01T20:53:01.854Z,-5.90
2018-03-01T20:55:30.068Z,-6.00
2018-03-01T20:57:57.466Z,-6.00
2018-03-01T21:00:25.015Z,-6.00
2018-03-01T21:02:52.442Z,-6.00
2018-03-01T21:05:20.657Z,-6.10
2018-03-01T21:07:48.122Z,-6.10
2018-03-01T21:10:16.314Z,-6.10
2018-03-01T21:12:43.750Z,-6.10
2018-03-01T21:15:11.978Z,-6.10
2018-03-01T21:17:39.403Z,-6.20
2018-03-01T21:20:08.550Z,-6.20
2018-03-01T21:22:36.014Z,-6.20
2018-03-01T21:25:03.448Z,-6.20
2018-03-01T21:27:30.880Z,-6.20
2018-03-01T21:29:58.297Z,-6.20
2018-03-01T21:32:25.866Z,-6.30
2018-03-01T21:34:54.089Z,-6.30
2018-03-01T21:37:21.631Z,-6.30
2018-03-01T21:39:49.895Z,-6.30
2018-03-01T21:42:17.287Z,-6.30
2018-03-01T21:44:45.529Z,-6.30
2018-03-01T21:47:12.946Z,-6.40
2018-03-01T21:49:41.159Z,-6.50
2018-03-01T21:52:09.491Z,-6.50
2018-03-01T21:54:36.919Z,-6.50
2018-03-01T21:57:04.349Z,-6.50
2018-03-01T21:59:32.555Z,-6.40
2018-03-01T22:01:59.986Z,-6.40
2018-03-01T22:04:27.506Z,-6.50
2018-03-01T22:06:54.998Z,-6.50
2018-03-01T22:09:22.409Z,-6.50
2018-03-01T22:11:50.600Z,-6.60
2018-03-01T22:14:18.041Z,-6.60
2018-03-01T22:16:45.610Z,-6.60
2018-03-01T22:19:13.026Z,-6.60
2018-03-01T22:21:40.462Z,-6.60
2018-03-01T22:24:09.590Z,-6.60
2018-03-01T22:26:37.081Z,-6.60
2018-03-01T22:29:04.518Z,-6.60
2018-03-01T22:31:32.728Z,-6.80
2018-03-01T22:34:00.174Z,-6.80
2018-03-01T22:36:27.675Z,-6.80
2018-03-01T22:38:55.088Z,-6.80
2018-03-01T22:41:24.047Z,-6.80
2018-03-01T22:43:51.518Z,-6.80
2018-03-01T22:46:18.975Z,-6.80
2018-03-01T22:48:46.452Z,-6.80
2018-03-01T22:51:13.870Z,-6.90
2018-03-01T22:53:41.316Z,-6.90
2018-03-01T22:56:09.725Z,-6.90
2018-03-01T22:58:37.142Z,-6.90
2018-03-01T23:01:04.562Z,-6.90
2018-03-01T23:03:32.083Z,-6.90
2018-03-01T23:05:59.519Z,-6.90
2018-03-01T23:08:27.735Z,-7.00
2018-03-01T23:10:55.161Z,-7.00
2018-03-01T23:13:22.606Z,-7.00
2018-03-01T23:15:50.083Z,-7.00
2018-03-01T23:18:17.534Z,-7.00
2018-03-01T23:20:44.998Z,-7.10
2018-03-01T23:23:12.432Z,-7.10
2018-03-01T23:25:41.119Z,-7.10
2018-03-01T23:28:10.236Z,-7.10
2018-03-01T23:30:37.718Z,-7.20
2018-03-01T23:33:05.187Z,-7.10
2018-03-01T23:35:32.642Z,-7.20
2018-03-01T23:38:00.089Z,-7.20
2018-03-01T23:40:27.512Z,-7.20
2018-03-01T23:42:54.960Z,-7.20
2018-03-01T23:45:22.383Z,-7.20
2018-03-01T23:47:49.945Z,-7.20
2018-03-01T23:50:17.492Z,-7.20
2018-03-01T23:52:44.974Z,-7.20
2018-03-01T23:55:12.388Z,-7.20
2018-03-01T23:57:39.864Z,-7.30
